Terminal Aerodrome Forecast
Issued by NWS

Home | Current Version | Previous Version | Text Only | Print | Product List | Glossary On
Versions: 1 2 3 4 5 6 7 8 9 10 11 12 13 14 15
000
FTUS45 KABQ 230759 AAA
TAFGUP
TAF AMD
KGUP 230759Z 2308/2406 21015G23KT P6SM FEW060
     FM231600 23022G30KT P6SM SCT050
     FM232000 26022G32KT P6SM FEW060
     FM240100 23011KT P6SM FEW060=

USA.gov is the U.S. government's official web portal to all federal, state and local government web resources and services.